Terminal Aerodrome Forecast
Issued by NWS Shreveport, LA

Home | Current Version | Previous Version | Text Only | Print | Product List | Glossary On
Versions: 1 2 3 4 5 6 7 8 9 10 11 12 13 14 15 16 17 18 19
000
FTUS44 KSHV 280500 RRA
TAFTYR
TAF
KTYR 280548Z 2806/2906 35011KT P6SM VCSH OVC012
      TEMPO 2808/2811 SCT015 OVC025
     FM281100 34008KT P6SM -RA OVC010
      TEMPO 2811/2814 4SM -RA BR OVC007
     FM281500 35006KT P6SM BKN015 OVC025
     FM282100 33005KT P6SM OVC050
     FM290300 00000KT P6SM BKN250=

USA.gov is the U.S. government's official web portal to all federal, state and local government web resources and services.